ADDS METAR Data INFO
IDs: Format: Raw Decoded Include TAF

Data at: 1330 UTC 25 Feb 2018

KGJT 251253Z 14006KT 10SM FEW070 M06/M07 A3003 RMK AO2 SLP192 T10611072
KGJT 251153Z AUTO 11007KT 10SM BKN060 OVC075 M05/M06 A3000 RMK AO2 SLP179 T10501061 11017 21061 53010
KGJT 251053Z AUTO 00000KT 10SM FEW050 BKN090 OVC110 M05/M06 A2998 RMK AO2 SLP169 T10501061
KGJT 250953Z AUTO 00000KT 10SM SCT100 M05/M07 A2997 RMK AO2 SLP165 T10501072
KGJT 250853Z AUTO 10004KT 10SM CLR M06/M07 A2996 RMK AO2 SLP167 T10561067 53000
KGJT 250753Z AUTO 12005KT 10SM CLR M04/M06 A2996 RMK AO2 SLP163 T10441061
KGJT 250653Z AUTO 11006KT 10SM SCT060 M03/M06 A2995 RMK AO2 SLP161 T10331056 400281078
KGJT 250553Z AUTO 11005KT 10SM OVC065 M02/M06 A2996 RMK AO2 SLP164 T10171056 10006 21017 50006
KGJT 250453Z AUTO 00000KT 10SM OVC070 M01/M09 A2997 RMK AO2 SLP168 T10111094
KGJT 250353Z 00000KT 10SM OVC060 M01/M09 A2996 RMK AO2 SLP167 T10111089
KGJT 250253Z 00000KT 10SM OVC075 M01/M10 A2994 RMK AO2 SLP165 T10111100 53005
KGJT 250153Z 31003KT 10SM FEW070 OVC090 M01/M11 A2994 RMK AO2 SLP163 T10061111
KGJT 250053Z 29006KT 10SM OVC100 00/M13 A2993 RMK AO2 SLP160 T00001133
KGJT 242353Z 28008KT 10SM BKN120 01/M15 A2993 RMK AO2 SLP156 T00061150 10028 21022 56019
KGJT 242253Z 29010KT 10SM CLR 01/M15 A2994 RMK AO2 SLP159 T00111150
KGJT 242153Z VRB05KT 10SM CLR 02/M16 A2995 RMK AO2 SLP158 T00171156
KGJT 242053Z COR VRB/05KT 10SM FEW070 01/M14 A2999 RMK AO2 SLP171 T00111139 58028
KGJT 241953Z 00000KT 10SM BKN065 01/M12 A3004 RMK AO2 SLP187 T00061122
KGJT 241853Z VRB03KT 10SM FEW055 M01/M12 A3006 RMK AO2 SLP198 T10061117
KGJT 241753Z 01004KT 10SM CLR M02/M11 A3009 RMK AO2 SLP210 T10221106 11022 21078 50005
KGJT 241653Z VRB03KT 10SM CLR M03/M11 A3009 RMK AO2 SLP212 T10331111
KGJT 241553Z 34010KT 10SM CLR M04/M11 A3009 RMK AO2 SLP213 T10441106
KGJT 241453Z 36006KT 10SM CLR M06/M10 A3007 RMK AO2 SLP209 T10611100 51016
KGJT 241353Z 00000KT 10SM BKN050 M07/M11 A3006 RMK AO2 SLP207 T10671106
KGJT 241253Z AUTO 32003KT 10SM FEW060 M07/M11 A3004 RMK AO2 SLP197 T10671106
KGJT 241153Z AUTO 34004KT 10SM CLR M07/M11 A3001 RMK AO2 SLP185 60000 T10671106 11022 21067 51009
KGJT 241053Z AUTO 30008KT 10SM CLR M06/M09 A3001 RMK AO2 SLP179 T10561094
KGJT 240953Z AUTO 28010KT 10SM OVC060 M04/M09 A3000 RMK AO2 SLP171 T10391089
KGJT 240853Z AUTO 29006KT 10SM BKN055 M04/M07 A2998 RMK AO2 SLP167 60000 T10391072 53005
KGJT 240753Z AUTO 27007KT 10SM BKN044 OVC055 M03/M05 A2997 RMK AO2 SNB11E21 SLP161 P0000 T10281050
KGJT 240653Z AUTO 00000KT 10SM FEW046 M03/M04 A2997 RMK AO2 SLP161 T10331044 400281039
KGJT 240553Z AUTO 28003KT 10SM FEW045 BKN060 M02/M04 A2997 RMK AO2 SLP159 T10221039 10017 21022 50002
KGJT 240453Z AUTO 34004KT 10SM SCT055 BKN120 M01/M04 A2997 RMK AO2 SLP160 T10111044
KGJT 240353Z 34004KT 10SM OVC110 M01/M04 A2997 RMK AO2 SLP162 T10111039
KGJT 240253Z 35007KT 10SM OVC090 M01/M04 A2996 RMK AO2 SLP161 T10111039 51017
KGJT 240153Z 33010KT 10SM FEW055 BKN100 M01/M03 A2995 RMK AO2 SLP159 T10111033